x

Edisto - 41 Nm Southeast Of Charleston, Sc (41004) Wave Buoy

1:50pm - Wed 1st Mar 2017 All times are EST. -5 hours from GMT.

  • Sig Wave height 4.9ft
  • Swell Direction
  • Peak Period 5s
  • Average Period 4s
  • Wind
    22mph, 27mph gusts
  • Sea Temp 69°f
  • Air Temp 71°f
  • Sea Pressure 1016.7mb
  • Edisto - 41 Nm Southeast Of Charleston, Sc
  • Edisto - 41 Nm Southeast Of Charleston, Sc

More Historic Weather Station data

Upgrade to MSW Pro to gain access to the past 30 days of data for over 8000 Wavebouys and Weather Stations around the globe.

Join Pro

Comparision Forecast

View Surf forecast
   
Wed 03/01 1:50pm 5ft 5s 4s 22 27 mph 1016.7mb 69f 71f
12:50pm 5ft 6s 5s 25 29 mph 1017.6mb 69f 71f
11:50am 4.5ft 7s 5s 22 27 mph 1018.7mb 69f 72f
10:50am 4.5ft 6s 5s 20 25 mph 1019.1mb 69f 72f
9:50am 4.5ft 7s 5s 20 22 mph 1019.3mb 69f 71f
8:50am 3.5ft 6s 5s 16 18 mph 1019.8mb 69f 71f
7:50am 4ft 6s 5s 16 18 mph 1019.4mb 69f 71f
6:50am 4.5ft 6s 5s 13 18 mph 1019.5mb 69f 71f
5:50am 4.5ft 6s 5s 13 16 mph 1019.7mb 69f 71f
4:50am 4.5ft 7s 5s 13 16 mph 1019.6mb 69f 71f
3:50am 4.5ft 6s 5s 16 18 mph 1019.7mb 69f 71f
2:50am 4ft 6s 5s 13 16 mph 1020.3mb 69f 71f
1:50am 4.5ft 6s 5s 11 13 mph 1021.3mb 69f 71f
12:50am 4ft 6s 5s 13 16 mph 1021.9mb 69f 72f
Tue 02/28 11:50pm 3.5ft 8s 5s 11 13 mph 1022mb 69f 71f
10:50pm 3.5ft 6s 5s 13 16 mph 1022.1mb 69f 72f
9:50pm 3.5ft 6s 5s 11
mph
1022.1mb 69f 71f
8:50pm 3.5ft 6s 5s 9 11 mph 1022.6mb 69f 71f
7:50pm 3.5ft 6s 5s 7
mph
1022.6mb 69f 70f
6:50pm 4ft 6s 5s 4 7 mph 1022.9mb 69f 70f
5:50pm 4.5ft 6s 5s 7
mph
1023.1mb 69f 71f
4:50pm 4.5ft 6s 5s 11
mph
1022.9mb 70f 72f
3:50pm 5ft 6s 5s 11
mph
1023.1mb 70f 72f
2:50pm 4.5ft 6s 5s 2
mph
1023.6mb 70f 72f
1:50pm 4.5ft 6s 5s 4 7 mph 1023.8mb 69f 72f
12:50pm 4.5ft 6s 5s 9 11 mph 1024.3mb 69f 71f
11:50am 5ft 7s 6s 9 11 mph 1025.2mb 69f 71f
10:50am 5.5ft 7s 6s 9 11 mph 1025.7mb 69f 71f
9:50am 6ft 7s 5s 11 13 mph 1025.7mb 68f 70f
8:50am 6ft 6s 5s 13 16 mph 1025.4mb 68f 71f
7:50am 5.5ft 6s 5s 18 20 mph 1025.1mb 68f 71f
6:50am 5.5ft 6s 5s 18 22 mph 1024.5mb 68f 71f
5:50am 6ft 6s 5s 16 20 mph 1024.4mb 68f 71f
4:50am 6ft 6s 5s 20 25 mph 1023mb 68f 71f
3:50am 5.5ft 6s 5s 22 27 mph 1023.1mb 68f 71f
2:50am 5ft 6s 5s 25 27 mph 1023.5mb 68f 71f
1:50am 4.5ft 6s 5s 20 25 mph 1023.9mb 69f 71f
12:50am 4.5ft 6s 5s 16 20 mph 1024.9mb 69f 71f
Mon 02/27 10:50pm 4ft 6s 5s 20 22 mph 1025.1mb 69f 70f
9:50pm 4.5ft 7s 5s 11 13 mph 1026.6mb 69f 70f
8:50pm 4ft 6s 5s 13 16 mph 1026.3mb 69f 70f
7:50pm 3.5ft 6s 5s 13 16 mph 1026.3mb 69f 69f
6:50pm 3.5ft 9s 5s 9 11 mph 1026.4mb 69f 69f
5:50pm 3.5ft 8s 5s 7 9 mph 1026.6mb 69f 69f
4:50pm 4ft 8s 5s 9 11 mph 1026.4mb 69f 69f
3:50pm 4ft 8s 5s 11 13 mph 1026.1mb 69f 69f
2:50pm 4ft 4s 5s 13 16 mph 1026mb 69f 69f
1:50pm 4ft 5s 5s 13 16 mph 1026.5mb 69f 69f
12:50pm 4ft 5s 5s 16 20 mph 1026.9mb 69f 69f
11:50am 3.5ft 9s 5s 16 18 mph 1027.8mb 69f 69f
10:50am 3.5ft 8s 5s 18 22 mph 1027.5mb 69f 68f
9:50am 3.5ft 9s 5s 20 22 mph 1026.6mb 69f 68f
8:50am 3.5ft 9s 5s 18 22 mph 1026.5mb 69f 66f
7:50am 3ft 8s 5s 18 20 mph 1026.5mb 69f 64f
6:50am 3ft 9s 5s 16 20 mph 1026.7mb 69f 63f
5:50am 2.5ft 9s 5s 13 18 mph 1026.7mb 69f 62f
4:50am 2.5ft 9s 5s 13 18 mph 1026.3mb 69f 62f
3:50am 2.5ft 9s 6s 13 16 mph 1026mb 69f 61f
2:50am 2.5ft 8s 6s 11 13 mph 1026.2mb 69f 61f
1:50am 2.5ft 9s 7s 9 13 mph 1026.7mb 69f 61f
12:50am 3ft 9s 7s 9 11 mph 1026.6mb 69f 61f
Sun 02/26 11:50pm 2.5ft 9s 7s 7 11 mph 1026.2mb 69f 60f
10:50pm 2.5ft 9s 7s 7 9 mph 1026.1mb 69f 60f
9:50pm 2.5ft 9s 7s 4 9 mph 1025.8mb 69f 60f
8:50pm 3ft 9s 7s 4 7 mph 1025.1mb 69f 60f
7:50pm 3ft 10s 6s  -  2 mph 1024.7mb 69f 59f
6:50pm 3ft 10s 6s 2
mph
1024.2mb 69f 59f
5:50pm 3ft 9s 6s 4 9 mph 1023.3mb 69f 59f
4:50pm 3.5ft 9s 6s 4 7 mph 1023mb 70f 59f
3:50pm 3ft 10s 5s  -  2 mph 1022.6mb 70f 59f
2:50pm 3.5ft 10s 6s 4 7 mph 1022.7mb 69f 57f
1:50pm 3ft 9s 5s 4 7 mph 1022.6mb 69f 57f
12:50pm 3.5ft 10s 5s 4 7 mph 1022.7mb 69f 56f
11:50am 3.5ft 10s 5s 7 11 mph 1022.8mb 69f 56f
10:50am 4ft 9s 5s 11 16 mph 1022.7mb 69f 56f
9:50am 4ft 10s 5s 11 16 mph 1022mb 69f 57f
8:50am 4.5ft 5s 5s 13 18 mph 1021.1mb 69f 57f
7:50am 4.5ft 5s 5s 13 18 mph 1019.8mb 69f 57f
6:50am 5ft 5s 5s 18 22 mph 1018.5mb 69f 58f
5:50am 5.5ft 5s 5s 22 25 mph 1017.1mb 69f 59f
4:50am 5.5ft 6s 5s 20 27 mph 1015.9mb 69f 59f
3:50am 6ft 6s 5s 22 29 mph 1015.1mb 69f 60f
2:50am 6ft 5s 5s 27 34 mph 1014.2mb 69f 62f
1:50am 5ft 5s 5s 27 34 mph 1013.8mb 69f 63f
12:50am 5.5ft 10s 5s 22 27 mph 1013mb 69f 65f
Sat 02/25 11:50pm 5ft 9s 5s 25 29 mph 1011.8mb 69f 67f
10:50pm 5.5ft 10s 5s 22 27 mph 1011mb 69f 69f
9:50pm 6ft 11s 5s 22 29 mph 1009.9mb 70f 71f
8:50pm 6ft 11s 6s 20 25 mph 1009mb 70f 71f